createdAt,value
2023-08-02T00:00:44.709Z,100014.78
2023-08-02T00:03:12.324Z,100012.19
2023-08-02T00:05:40.282Z,100014.84
2023-08-02T00:08:07.568Z,100009.63
2023-08-02T00:10:38.281Z,100009.63
2023-08-02T00:13:05.728Z,100014.97
2023-08-02T00:15:33.130Z,100005.25
2023-08-02T00:18:01.317Z,100000.91
2023-08-02T00:20:28.623Z,100011.53
2023-08-02T00:22:55.940Z,100001.78
2023-08-02T00:25:24.034Z,100006.22
2023-08-02T00:27:51.748Z,99995.53
2023-08-02T00:30:19.882Z,99992.88
2023-08-02T00:32:49.046Z,99996.38
2023-08-02T00:35:16.997Z,99989.25
2023-08-02T00:37:47.316Z,99990.09
2023-08-02T00:40:16.311Z,99998.94
2023-08-02T00:42:44.926Z,99993.69
2023-08-02T00:45:14.212Z,100000.72
2023-08-02T00:47:41.881Z,100003.38
2023-08-02T00:50:10.942Z,99994.56
2023-08-02T00:52:39.353Z,99994.53
2023-08-02T00:55:08.448Z,99990.06
2023-08-02T00:57:38.374Z,100001.59
2023-08-02T01:00:06.871Z,99993.63
2023-08-02T01:02:35.694Z,99998.06
2023-08-02T01:05:05.183Z,99993.69
2023-08-02T01:07:58.307Z,99998.06
2023-08-02T01:10:48.349Z,99995.38
2023-08-02T01:13:18.398Z,99990.91
2023-08-02T01:15:47.276Z,99990.81
2023-08-02T01:18:14.879Z,99978.41
2023-08-02T01:20:43.535Z,99978.38
2023-08-02T01:23:10.896Z,99987.19
2023-08-02T01:25:40.248Z,99985.41
2023-08-02T01:28:17.481Z,99989.81
2023-08-02T01:30:46.805Z,99972.94
2023-08-02T01:33:17.110Z,99972.94
2023-08-02T01:35:45.163Z,99966.75
2023-08-02T01:38:15.732Z,99974.72
2023-08-02T01:40:43.316Z,99973.84
2023-08-02T01:43:11.121Z,99964.09
2023-08-02T01:45:38.554Z,99972.06
2023-08-02T01:48:06.236Z,99956.94
2023-08-02T01:50:33.667Z,99948.97
2023-08-02T01:53:01.088Z,99951.59
2023-08-02T01:55:28.452Z,99953.41
2023-08-02T01:57:55.783Z,99953.41
2023-08-02T02:00:29.191Z,99956.13
2023-08-02T02:02:58.549Z,99946.41
2023-08-02T02:05:26.019Z,99940.25
2023-08-02T02:07:53.565Z,99939.34
2023-08-02T02:10:21.432Z,99937.56
2023-08-02T02:12:48.812Z,99934.91
2023-08-02T02:15:16.240Z,99935.72
2023-08-02T02:17:44.542Z,99927.78
2023-08-02T02:20:13.108Z,99926.03
2023-08-02T02:22:41.060Z,99931.38
2023-08-02T02:25:09.944Z,99921.66
2023-08-02T02:27:37.882Z,99926.13
2023-08-02T02:30:07.185Z,99920.81
2023-08-02T02:32:34.494Z,99915.53
2023-08-02T02:35:03.462Z,99907.53
2023-08-02T02:37:30.806Z,99906.69
2023-08-02T02:39:59.378Z,99896.91
2023-08-02T02:42:26.888Z,99898.63
2023-08-02T02:44:55.332Z,99901.38
2023-08-02T02:47:22.889Z,99896.06
2023-08-02T02:49:50.607Z,99898.63
2023-08-02T02:52:18.016Z,99894.28
2023-08-02T02:54:45.363Z,99893.41
2023-08-02T02:57:12.747Z,99887.22
2023-08-02T02:59:40.105Z,99882.84
2023-08-02T03:02:07.710Z,99881.91
2023-08-02T03:04:35.158Z,99871.28
2023-08-02T03:07:02.900Z,99867.78
2023-08-02T03:09:30.284Z,99860.75
2023-08-02T03:11:57.672Z,99854.53
2023-08-02T03:14:24.979Z,99849.25
2023-08-02T03:16:52.361Z,99841.28
2023-08-02T03:19:19.765Z,99843.97
2023-08-02T03:21:47.082Z,99851.94
2023-08-02T03:24:17.071Z,99846.63
2023-08-02T03:26:45.063Z,99845.78
2023-08-02T03:29:12.404Z,99843.13
2023-08-02T03:31:39.747Z,99836.94
2023-08-02T03:34:07.172Z,99837.00
2023-08-02T03:36:35.098Z,99824.66
2023-08-02T03:39:02.701Z,99829.97
2023-08-02T03:41:30.072Z,99825.56
2023-08-02T03:43:57.321Z,99815.84
2023-08-02T03:46:24.751Z,99813.19
2023-08-02T03:48:52.131Z,99811.44
2023-08-02T03:51:19.677Z,99814.09
2023-08-02T03:53:47.440Z,99814.09
2023-08-02T03:56:15.060Z,99801.72
2023-08-02T03:58:42.530Z,99807.03
2023-08-02T04:01:10.380Z,99792.91
2023-08-02T04:03:37.716Z,99790.25
2023-08-02T04:06:05.536Z,99784.09
2023-08-02T04:08:32.900Z,99788.47
2023-08-02T04:11:05.635Z,99782.28
2023-08-02T04:13:33.893Z,99789.31
2023-08-02T04:16:02.780Z,99786.63
2023-08-02T04:18:30.558Z,99775.09
2023-08-02T04:21:00.762Z,99774.16
2023-08-02T04:23:28.485Z,99779.47
2023-08-02T04:26:10.827Z,99775.06
2023-08-02T04:28:38.671Z,99780.38
2023-08-02T04:31:06.194Z,99779.44
2023-08-02T04:33:33.478Z,99785.69
2023-08-02T04:36:01.791Z,99788.31
2023-08-02T04:38:29.131Z,99770.56
2023-08-02T04:40:58.134Z,99762.56
2023-08-02T04:43:25.467Z,99755.47
2023-08-02T04:45:52.806Z,99764.28
2023-08-02T04:48:20.699Z,99753.63
2023-08-02T04:50:48.083Z,99751.88
2023-08-02T04:53:15.370Z,99752.75
2023-08-02T04:55:44.676Z,99750.16
2023-08-02T04:58:12.278Z,99748.34
2023-08-02T05:00:40.762Z,99742.16
2023-08-02T05:03:08.265Z,99742.97
2023-08-02T05:05:35.982Z,99744.72
2023-08-02T05:08:03.754Z,99726.09
2023-08-02T05:10:33.210Z,99724.34
2023-08-02T05:13:00.712Z,99737.59
2023-08-02T05:15:28.015Z,99721.59
2023-08-02T05:17:55.439Z,99703.91
2023-08-02T05:20:22.900Z,99703.03
2023-08-02T05:22:51.988Z,99703.91
2023-08-02T05:25:19.933Z,99710.09
2023-08-02T05:27:47.268Z,99710.94
2023-08-02T05:30:14.580Z,99705.63
2023-08-02T05:32:44.321Z,99709.09
2023-08-02T05:35:12.105Z,99710.84
2023-08-02T05:37:39.517Z,99700.22
2023-08-02T05:40:07.539Z,99694.00
2023-08-02T05:42:36.359Z,99685.03
2023-08-02T05:45:04.637Z,99691.16
2023-08-02T05:47:32.436Z,99677.75
2023-08-02T05:50:00.262Z,99667.03
2023-08-02T05:52:27.665Z,99660.72
2023-08-02T05:54:54.983Z,99657.66
2023-08-02T05:57:22.371Z,99644.41
2023-08-02T05:59:50.650Z,99633.31
2023-08-02T06:02:18.224Z,99627.66
2023-08-02T06:04:46.763Z,99623.91
2023-08-02T06:07:15.185Z,99632.63
2023-08-02T06:09:43.107Z,99642.22
2023-08-02T06:12:10.518Z,99631.38
2023-08-02T06:14:40.146Z,99622.34
2023-08-02T06:17:07.507Z,99624.69
2023-08-02T06:19:34.855Z,99621.03
2023-08-02T06:22:02.200Z,99607.63
2023-08-02T06:24:29.545Z,99601.47
2023-08-02T06:26:56.880Z,99607.63
2023-08-02T06:29:24.366Z,99606.84
2023-08-02T06:31:52.755Z,99606.66
2023-08-02T06:34:20.044Z,99602.09
2023-08-02T06:36:47.317Z,99607.28
2023-08-02T06:39:14.801Z,99603.56
2023-08-02T06:41:42.297Z,99602.59
2023-08-02T06:44:10.295Z,99598.06
2023-08-02T06:46:37.676Z,99596.16
2023-08-02T06:49:05.111Z,99588.16
2023-08-02T06:51:32.581Z,99588.81
2023-08-02T06:53:59.981Z,99587.16
2023-08-02T06:56:27.754Z,99571.25
2023-08-02T06:58:55.103Z,99573.81
2023-08-02T07:01:23.994Z,99582.63
2023-08-02T07:03:54.266Z,99566.63
2023-08-02T07:06:22.335Z,99562.38
2023-08-02T07:08:50.637Z,99559.78
2023-08-02T07:11:30.070Z,99556.03
2023-08-02T07:13:58.293Z,99550.59
2023-08-02T07:16:25.743Z,99553.06
2023-08-02T07:18:53.253Z,99553.06
2023-08-02T07:21:20.984Z,99555.59
2023-08-02T07:23:48.308Z,99565.97
2023-08-02T07:26:15.899Z,99552.56
2023-08-02T07:28:43.230Z,99550.50
2023-08-02T07:31:14.930Z,99546.63
2023-08-02T07:33:42.445Z,99534.91
2023-08-02T07:36:20.192Z,99538.47
2023-08-02T07:38:48.182Z,99528.88
2023-08-02T07:41:15.943Z,99524.50
2023-08-02T07:43:43.265Z,99523.81
2023-08-02T07:46:21.975Z,99523.94
2023-08-02T07:48:53.161Z,99513.31
2023-08-02T07:51:22.067Z,99507.19
2023-08-02T07:53:50.105Z,99510.06
2023-08-02T07:56:17.406Z,99498.59
2023-08-02T07:58:44.671Z,99496.78
2023-08-02T08:01:12.088Z,99496.00
2023-08-02T08:03:39.760Z,99479.97
2023-08-02T08:06:12.453Z,99478.19
2023-08-02T08:08:41.548Z,99482.69
2023-08-02T08:11:09.001Z,99474.84
2023-08-02T08:13:36.463Z,99471.38
2023-08-02T08:16:04.098Z,99462.50
2023-08-02T08:18:33.608Z,99476.81
2023-08-02T08:21:05.935Z,99468.81
2023-08-02T08:23:34.407Z,99452.13
2023-08-02T08:26:01.775Z,99437.03
2023-08-02T08:28:29.369Z,99417.63
2023-08-02T08:31:05.205Z,99414.09
2023-08-02T08:33:32.971Z,99404.38
2023-08-02T08:36:00.662Z,99399.84
2023-08-02T08:38:28.100Z,99399.78
2023-08-02T08:40:57.787Z,99389.94
2023-08-02T08:43:27.574Z,99390.88
2023-08-02T08:45:59.149Z,99382.97
2023-08-02T08:48:28.264Z,99382.19
2023-08-02T08:50:57.340Z,99372.53
2023-08-02T08:53:32.869Z,99368.22
2023-08-02T08:56:01.974Z,99373.91
2023-08-02T08:58:30.189Z,99364.47
2023-08-02T09:00:59.568Z,99368.03
2023-08-02T09:03:27.388Z,99360.28
2023-08-02T09:05:57.985Z,99346.25
2023-08-02T09:08:25.361Z,99338.50
2023-08-02T09:10:53.488Z,99326.59
2023-08-02T09:13:26.798Z,99332.91
2023-08-02T09:16:16.465Z,99311.94
2023-08-02T09:18:49.172Z,99314.72
2023-08-02T09:21:22.014Z,99320.25
2023-08-02T09:23:57.555Z,99322.16
2023-08-02T09:26:25.901Z,99317.13
2023-08-02T09:29:00.908Z,99310.59
2023-08-02T09:31:30.198Z,99324.13
2023-08-02T09:33:58.301Z,99331.31
2023-08-02T09:36:30.591Z,99320.91
2023-08-02T09:39:10.711Z,99322.03
2023-08-02T09:44:09.417Z,99303.00
2023-08-02T09:46:37.663Z,99299.38
2023-08-02T09:49:19.352Z,99311.59
2023-08-02T09:51:46.881Z,99303.53
2023-08-02T09:54:15.547Z,99297.34
2023-08-02T09:56:44.582Z,99296.41
2023-08-02T09:59:13.111Z,99284.94
2023-08-02T10:01:41.936Z,99280.47
2023-08-02T10:04:11.917Z,99273.41
2023-08-02T10:07:10.108Z,99266.22
2023-08-02T10:09:38.902Z,99263.69
2023-08-02T10:12:15.099Z,99263.69
2023-08-02T10:14:42.993Z,99254.66
2023-08-02T10:17:10.862Z,99247.31
2023-08-02T10:19:39.108Z,99238.09
2023-08-02T10:22:07.611Z,99237.75
2023-08-02T10:24:35.864Z,99233.84
2023-08-02T10:27:06.446Z,99231.97
2023-08-02T10:29:36.231Z,99224.16
2023-08-02T10:32:19.051Z,99207.63
2023-08-02T10:34:52.213Z,99193.59
2023-08-02T10:37:21.310Z,99198.13
2023-08-02T10:39:48.701Z,99178.63
2023-08-02T10:42:19.055Z,99169.91
2023-08-02T10:44:55.515Z,99167.31
2023-08-02T10:47:31.885Z,99168.34
2023-08-02T10:50:00.929Z,99174.34
2023-08-02T10:52:40.116Z,99168.06
2023-08-02T10:55:26.438Z,99162.59
2023-08-02T10:57:56.840Z,99160.88
2023-08-02T11:00:27.410Z,99149.25
2023-08-02T11:02:54.845Z,99140.47
2023-08-02T11:05:47.045Z,99124.41
2023-08-02T11:08:14.691Z,99120.69
2023-08-02T11:10:56.074Z,99108.91
2023-08-02T11:13:38.342Z,99118.69
2023-08-02T11:16:05.795Z,99103.66
2023-08-02T11:18:35.367Z,99100.88
2023-08-02T11:21:14.093Z,99091.03
2023-08-02T11:26:15.962Z,99081.75
2023-08-02T11:28:46.649Z,99079.03
2023-08-02T11:31:13.941Z,99074.44
2023-08-02T11:33:42.090Z,99062.72
2023-08-02T11:36:09.815Z,99059.06
2023-08-02T11:38:38.475Z,99066.16
2023-08-02T11:41:23.580Z,99049.34
2023-08-02T11:43:51.623Z,99047.53
2023-08-02T11:46:22.988Z,99045.00
2023-08-02T11:48:50.647Z,99043.97
2023-08-02T11:51:20.727Z,99041.31
2023-08-02T11:53:53.105Z,99024.72
2023-08-02T11:56:26.590Z,99020.44
2023-08-02T11:58:55.229Z,99035.59
2023-08-02T12:01:23.574Z,99024.78
2023-08-02T12:03:58.451Z,99023.72
2023-08-02T12:06:29.748Z,99019.97
2023-08-02T12:09:01.774Z,99011.06
2023-08-02T12:11:30.486Z,99004.66
2023-08-02T12:13:59.400Z,98995.75
2023-08-02T12:16:42.236Z,98986.53
2023-08-02T12:19:11.009Z,98974.81
2023-08-02T12:21:39.952Z,98974.56
2023-08-02T12:24:15.114Z,98973.31
2023-08-02T12:26:44.272Z,98967.00
2023-08-02T12:29:23.938Z,98965.91
2023-08-02T12:31:54.716Z,98954.56
2023-08-02T12:34:27.264Z,98948.28
2023-08-02T12:36:55.571Z,98954.31
2023-08-02T12:39:23.845Z,98953.69
2023-08-02T12:41:52.707Z,98961.25
2023-08-02T12:44:21.308Z,98960.09
2023-08-02T12:46:49.231Z,98957.19
2023-08-02T12:49:16.682Z,98954.47
2023-08-02T12:51:43.967Z,98956.97
2023-08-02T12:54:11.432Z,98964.69
2023-08-02T12:56:38.976Z,98961.03
2023-08-02T12:59:06.382Z,98958.19
2023-08-02T13:01:36.129Z,98952.44
2023-08-02T13:04:04.261Z,98937.00
2023-08-02T13:06:37.484Z,98934.09
2023-08-02T13:09:10.771Z,98931.19
2023-08-02T13:11:38.437Z,98922.84
2023-08-02T13:14:08.089Z,98919.78
2023-08-02T13:16:35.630Z,98898.19
2023-08-02T13:19:03.112Z,98905.06
2023-08-02T13:21:30.970Z,98895.44
2023-08-02T13:23:58.346Z,98904.06
2023-08-02T13:26:25.882Z,98899.34
2023-08-02T13:28:53.223Z,98887.00
2023-08-02T13:31:20.760Z,98901.97
2023-08-02T13:33:48.339Z,98900.66
2023-08-02T13:36:16.767Z,98895.13
2023-08-02T13:38:46.071Z,98894.94
2023-08-02T13:41:13.445Z,98901.13
2023-08-02T13:43:40.854Z,98894.56
2023-08-02T13:46:12.050Z,98888.00
2023-08-02T13:48:40.574Z,98879.22
2023-08-02T13:51:10.054Z,98858.06
2023-08-02T13:53:38.314Z,98858.66
2023-08-02T13:56:05.743Z,98847.94
2023-08-02T13:58:33.042Z,98845.25
2023-08-02T14:01:00.450Z,98854.66
2023-08-02T14:03:28.662Z,98853.13
2023-08-02T14:05:56.318Z,98850.69
2023-08-02T14:08:24.008Z,98842.84
2023-08-02T14:10:51.473Z,98854.63
2023-08-02T14:13:18.933Z,98849.28
2023-08-02T14:15:46.461Z,98842.41
2023-08-02T14:18:15.570Z,98841.66
2023-08-02T14:20:42.999Z,98849.88
2023-08-02T14:23:10.393Z,98859.03
2023-08-02T14:25:37.908Z,98849.63
2023-08-02T14:28:09.586Z,98850.78
2023-08-02T14:30:36.967Z,98834.09
2023-08-02T14:33:04.712Z,98845.72
2023-08-02T14:35:32.509Z,98837.03
2023-08-02T14:38:01.758Z,98839.28
2023-08-02T14:40:29.028Z,98847.56
2023-08-02T14:42:56.669Z,98851.19
2023-08-02T14:45:25.270Z,98856.13
2023-08-02T14:47:53.956Z,98847.44
2023-08-02T14:50:21.578Z,98851.78
2023-08-02T14:52:48.912Z,98842.06
2023-08-02T14:55:17.108Z,98833.91
2023-08-02T14:57:45.633Z,98824.00
2023-08-02T15:00:15.806Z,98823.59
2023-08-02T15:02:43.441Z,98817.72
2023-08-02T15:05:11.028Z,98808.84
2023-08-02T15:07:38.380Z,98801.88
2023-08-02T15:10:07.455Z,98800.19
2023-08-02T15:12:35.205Z,98796.22
2023-08-02T15:15:02.589Z,98806.50
2023-08-02T15:17:29.978Z,98800.81
2023-08-02T15:19:57.538Z,98798.78
2023-08-02T15:22:24.899Z,98803.13
2023-08-02T15:24:52.223Z,98805.41
2023-08-02T15:27:20.024Z,98813.34
2023-08-02T15:29:47.283Z,98810.44
2023-08-02T15:32:14.630Z,98813.75
2023-08-02T15:34:42.025Z,98808.50
2023-08-02T15:37:14.748Z,98813.09
2023-08-02T15:39:42.208Z,98810.34
2023-08-02T15:42:09.668Z,98813.31
2023-08-02T15:44:37.440Z,98816.22
2023-08-02T15:47:04.970Z,98803.38
2023-08-02T15:49:32.358Z,98818.69
2023-08-02T15:51:59.874Z,98809.13
2023-08-02T15:54:27.359Z,98810.66
2023-08-02T15:56:54.904Z,98818.69
2023-08-02T15:59:22.287Z,98815.25
2023-08-02T16:01:50.795Z,98820.81
2023-08-02T16:04:18.196Z,98814.06
2023-08-02T16:06:47.104Z,98816.28
2023-08-02T16:09:15.045Z,98809.34
2023-08-02T16:11:45.182Z,98819.09
2023-08-02T16:14:13.652Z,98815.63
2023-08-02T16:16:45.152Z,98820.03
2023-08-02T16:19:14.329Z,98815.88
2023-08-02T16:21:42.238Z,98816.91
2023-08-02T16:24:09.678Z,98824.31
2023-08-02T16:26:39.493Z,98823.16
2023-08-02T16:29:06.920Z,98820.25
2023-08-02T16:31:34.278Z,98823.78
2023-08-02T16:34:01.670Z,98824.00
2023-08-02T16:36:29.570Z,98819.28
2023-08-02T16:38:57.062Z,98808.28
2023-08-02T16:41:24.414Z,98815.34
2023-08-02T16:43:52.408Z,98814.59
2023-08-02T16:46:22.872Z,98812.22
2023-08-02T16:48:50.395Z,98827.41
2023-08-02T16:51:18.632Z,98821.75
2023-08-02T16:53:46.400Z,98826.94
2023-08-02T16:56:14.911Z,98826.72
2023-08-02T16:58:42.255Z,98827.41
2023-08-02T17:01:09.902Z,98825.50
2023-08-02T17:03:37.260Z,98829.56
2023-08-02T17:06:04.715Z,98822.50
2023-08-02T17:08:39.673Z,98825.69
2023-08-02T17:11:07.111Z,98829.19
2023-08-02T17:13:34.606Z,98829.28
2023-08-02T17:16:04.087Z,98831.19
2023-08-02T17:18:32.321Z,98834.09
2023-08-02T17:21:02.330Z,98830.53
2023-08-02T17:23:29.888Z,98831.59
2023-08-02T17:25:57.283Z,98835.34
2023-08-02T17:28:27.764Z,98829.44
2023-08-02T17:30:55.215Z,98838.38
2023-08-02T17:33:24.728Z,98824.28
2023-08-02T17:35:53.613Z,98831.34
2023-08-02T17:38:20.965Z,98827.16
2023-08-02T17:40:48.675Z,98830.69
2023-08-02T17:43:16.168Z,98817.66
2023-08-02T17:45:44.745Z,98828.50
2023-08-02T17:48:17.765Z,98833.28
2023-08-02T17:50:55.967Z,98834.81
2023-08-02T17:53:25.167Z,98829.09
2023-08-02T17:56:00.182Z,98831.38
2023-08-02T17:58:33.518Z,98829.94
2023-08-02T18:01:16.065Z,98837.47
2023-08-02T18:03:48.279Z,98828.91
2023-08-02T18:06:21.145Z,98829.06
2023-08-02T18:08:50.105Z,98830.88
2023-08-02T18:11:24.673Z,98839.94
2023-08-02T18:13:55.790Z,98840.97
2023-08-02T18:16:23.518Z,98839.19
2023-08-02T18:18:56.156Z,98833.19
2023-08-02T18:21:30.894Z,98836.78
2023-08-02T18:23:58.382Z,98836.31
2023-08-02T18:26:25.593Z,98837.34
2023-08-02T18:28:57.098Z,98836.59
2023-08-02T18:31:51.012Z,98838.56
2023-08-02T18:34:18.451Z,98852.97
2023-08-02T18:36:47.956Z,98860.88
2023-08-02T18:39:15.207Z,98853.03
2023-08-02T18:41:42.776Z,98862.84
2023-08-02T18:44:10.844Z,98868.28
2023-08-02T18:46:38.939Z,98872.00
2023-08-02T18:49:06.327Z,98874.81
2023-08-02T18:51:33.785Z,98882.06
2023-08-02T18:54:01.511Z,98886.63
2023-08-02T18:56:28.844Z,98884.13
2023-08-02T18:58:57.035Z,98890.44
2023-08-02T19:01:24.345Z,98883.44
2023-08-02T19:03:52.194Z,98885.34
2023-08-02T19:06:19.907Z,98885.72
2023-08-02T19:08:47.753Z,98886.94
2023-08-02T19:11:24.535Z,98893.31
2023-08-02T19:13:53.306Z,98901.47
2023-08-02T19:16:23.268Z,98899.06
2023-08-02T19:18:50.774Z,98895.88
2023-08-02T19:21:18.284Z,98904.03
2023-08-02T19:23:46.290Z,98900.03
2023-08-02T19:26:17.450Z,98900.25
2023-08-02T19:28:45.502Z,98909.22
2023-08-02T19:31:15.379Z,98913.84
2023-08-02T19:33:46.407Z,98914.97
2023-08-02T19:36:23.343Z,98911.63
2023-08-02T19:38:50.854Z,98906.38
2023-08-02T19:41:28.128Z,98916.25
2023-08-02T19:43:58.670Z,98917.25
2023-08-02T19:46:27.676Z,98923.56
2023-08-02T19:48:55.186Z,98921.75
2023-08-02T19:51:22.589Z,98920.03
2023-08-02T19:53:49.960Z,98927.06
2023-08-02T19:56:21.060Z,98928.94
2023-08-02T19:58:48.565Z,98937.97
2023-08-02T20:01:15.873Z,98935.47
2023-08-02T20:03:43.441Z,98944.56
2023-08-02T20:06:11.866Z,98938.56
2023-08-02T20:08:39.556Z,98951.19
2023-08-02T20:11:07.988Z,98951.44
2023-08-02T20:13:38.059Z,98955.28
2023-08-02T20:16:11.633Z,98960.00
2023-08-02T20:18:39.809Z,98958.59
2023-08-02T20:21:20.510Z,98961.66
2023-08-02T20:23:57.492Z,98958.47
2023-08-02T20:26:28.606Z,98973.00
2023-08-02T20:28:56.845Z,98957.25
2023-08-02T20:31:33.236Z,98965.44
2023-08-02T20:34:01.111Z,98967.44
2023-08-02T20:36:31.316Z,98966.75
2023-08-02T20:38:58.616Z,98958.06
2023-08-02T20:41:28.520Z,98966.19
2023-08-02T20:43:57.793Z,98961.97
2023-08-02T20:46:30.846Z,98962.16
2023-08-02T20:49:08.226Z,98955.28
2023-08-02T20:51:36.408Z,98962.69
2023-08-02T20:54:05.679Z,98969.94
2023-08-02T20:56:36.074Z,98973.72
2023-08-02T20:59:12.021Z,98964.88
2023-08-02T21:01:44.722Z,98961.66
2023-08-02T21:04:14.617Z,98968.91
2023-08-02T21:07:05.532Z,98959.44
2023-08-02T21:09:37.859Z,98957.25
2023-08-02T21:12:06.044Z,98958.28
2023-08-02T21:14:33.563Z,98961.84
2023-08-02T21:17:02.034Z,98956.53
2023-08-02T21:19:36.416Z,98947.72
2023-08-02T21:22:06.468Z,98946.09
2023-08-02T21:24:34.086Z,98943.34
2023-08-02T21:27:07.273Z,98942.34
2023-08-02T21:29:35.617Z,98932.63
2023-08-02T21:32:04.771Z,98941.47
2023-08-02T21:34:34.007Z,98941.41
2023-08-02T21:37:03.032Z,98943.19
2023-08-02T21:39:30.615Z,98938.81
2023-08-02T21:41:58.791Z,98937.88
2023-08-02T21:44:30.513Z,98941.41
2023-08-02T21:47:02.717Z,98936.16
2023-08-02T21:49:30.629Z,98930.84
2023-08-02T21:51:58.000Z,98928.34
2023-08-02T21:54:25.357Z,98931.94
2023-08-02T21:56:55.718Z,98940.84
2023-08-02T21:59:23.107Z,98933.72
2023-08-02T22:01:50.510Z,98934.59
2023-08-02T22:04:19.972Z,98931.13
2023-08-02T22:06:48.697Z,98935.59
2023-08-02T22:09:17.668Z,98936.53
2023-08-02T22:11:46.031Z,98933.97
2023-08-02T22:14:13.931Z,98933.97
2023-08-02T22:16:43.487Z,98934.81
2023-08-02T22:19:11.042Z,98926.00
2023-08-02T22:21:38.316Z,98928.72
2023-08-02T22:24:05.939Z,98926.13
2023-08-02T22:26:33.740Z,98917.38
2023-08-02T22:29:01.090Z,98922.69
2023-08-02T22:31:28.672Z,98913.03
2023-08-02T22:33:55.931Z,98906.22
2023-08-02T22:36:23.372Z,98909.78
2023-08-02T22:38:50.684Z,98899.25
2023-08-02T22:41:18.056Z,98899.31
2023-08-02T22:43:47.067Z,98892.22
2023-08-02T22:46:14.710Z,98887.84
2023-08-02T22:49:52.373Z,98888.75
2023-08-02T22:51:29.689Z,98881.69
2023-08-02T22:53:57.271Z,98879.91
2023-08-02T22:56:28.553Z,98875.56
2023-08-02T22:59:02.332Z,98868.50
2023-08-02T23:01:34.221Z,98875.63
2023-08-02T23:04:01.773Z,98880.00
2023-08-02T23:06:29.229Z,98879.91
2023-08-02T23:08:59.800Z,98881.72
2023-08-02T23:11:27.475Z,98880.78
2023-08-02T23:13:56.117Z,98880.72
2023-08-02T23:16:25.698Z,98870.03
2023-08-02T23:18:58.689Z,98872.63
2023-08-02T23:21:40.131Z,98872.63
2023-08-02T23:24:15.440Z,98869.97
2023-08-02T23:26:42.787Z,98872.63
2023-08-02T23:29:12.340Z,98869.03
2023-08-02T23:31:41.166Z,98869.03
2023-08-02T23:34:08.453Z,98865.44
2023-08-02T23:36:35.756Z,98860.03
2023-08-02T23:39:04.756Z,98867.16
2023-08-02T23:41:32.023Z,98859.19
2023-08-02T23:44:00.074Z,98854.81
2023-08-02T23:46:29.128Z,98853.78
2023-08-02T23:48:56.605Z,98853.78
2023-08-02T23:51:24.046Z,98853.72
2023-08-02T23:53:51.328Z,98858.19
2023-08-02T23:56:18.676Z,98853.72
2023-08-02T23:58:46.049Z,98861.69
